• Join FlightAware (Why Join?)
  • Login
  • US Flag 
12:42AM EST


 

Airport Tracker/Info


-or-


 

Live Flight TrackerFlight Track Log ✈ SWA1362 ✈ 27-Apr-2013 ✈ KSAN - KPHX

Flight Track Log - Related Links

Times and Time Zones

All times are in EDT time to prevent confusion due to time zone crossing. See the SWA1362 flight status page for this flight to view local times or setup timezone preferences in your user account.

Time Position Orientation Groundspeed Altitude Reporting Facility
EDT Latitude Longitude Course Direction KTS MPH feet Rate Location/Type
03:43PM 32.7411 -117.2217 82° East 143 165 1,500  Level Los Angeles Center
03:44PM 32.7572 -117.2958 285° West 227 261 3,800 2,580 Climbing Los Angeles Center
03:45PM 32.7000 -117.3203 200° South 256 295 6,900 3,000 Climbing Los Angeles Center
03:46PM 32.6503 -117.2508 130° Southeast 277 319 10,100 2,460 Climbing Los Angeles Center
03:47PM 32.6331 -117.1294 100° East 313 360 12,100 2,400 Climbing Los Angeles Center
03:48PM 32.6144 -117.0128 101° East 350 403 15,100 3,000 Climbing Los Angeles Center
03:49PM 32.6514 -116.5218 82° East  Level FlightAware Approximate
03:49PM 32.6181 -116.8922 88° East 364 419 18,400  Level Los Angeles Center
03:50PM 32.6308 -116.7714 83° East 370 426 21,100 2,340 Climbing Los Angeles Center
03:52PM 32.6428 -116.6422 84° East 394 453 23,300 2,580 Climbing Los Angeles Center
03:53PM 32.6594 -116.4842 83° East 406 467 26,500 2,460 Climbing Los Angeles Center
03:54PM 32.6678 -116.3808 85° East 402 463 28,500 1,200 Climbing Los Angeles Center
03:55PM 32.6833 -116.2236 83° East 408 470 29,000 240 Climbing Los Angeles Center
03:56PM 32.6953 -116.0900 84° East 411 473 29,000  Level Los Angeles Center
03:57PM 32.7083 -115.9567 83° East 411 473 29,000  Level Los Angeles Center
03:58PM 32.7228 -115.7950 84° East 412 474 29,000  Level Los Angeles Center
03:59PM 32.7358 -115.6622 83° East 409 471 29,000  Level Los Angeles Center
04:00PM 32.7472 -115.5292 84° East 408 470 29,000  Level Los Angeles Center
04:01PM 32.7519 -115.3950 88° East 409 471 29,000  Level Los Angeles Center
04:02PM 32.7575 -115.2283 88° East 424 488 29,000  Level Los Angeles Center
04:03PM 32.7589 -115.0572 89° East 431 496 29,000  Level Los Angeles Center
04:04PM 32.7639 -114.9147 88° East 433 498 29,000  Level Los Angeles Center
04:05PM 32.7689 -114.7722 88° East 432 497 29,000  Level Los Angeles Center
04:06PM 32.7686 -114.6306 90° East 429 494 29,000  Level Los Angeles Center
04:07PM 32.7731 -114.4872 88° East 434 499 29,000  Level Los Angeles Center
04:08PM 32.7731 -114.3447 90° East 434 499 29,000 -1,140 Level Los Angeles Center
04:09PM 32.7742 -114.1794 89° East 418 481 26,700 -2,040 Descending Los Angeles Center
04:10PM 32.7756 -114.0456 89° East 407 468 24,900 -840 Descending Los Angeles Center
04:11PM 32.7842 -113.9133 86° East 404 465 25,000 60 Climbing Los Angeles Center
04:12PM 32.7900 -113.8694 81° East 403 464 25,000  Level Albuquerque Center
04:13PM 32.8139 -113.7133 80° East 400 460 25,000  Level Albuquerque Center
04:14PM 32.8744 -113.6053 56° Northeast 388 447 25,000  Level Albuquerque Center
04:15PM 32.9331 -113.4942 58° Northeast 393 452 25,000  Level Albuquerque Center
04:16PM 32.9911 -113.3825 58° Northeast 394 453 25,000 -660 Level Albuquerque Center
04:17PM 33.0481 -113.2706 59° Northeast 394 453 23,700 -1,620 Descending Albuquerque Center
04:18PM 33.1033 -113.1644 58° Northeast 382 440 21,700 -2,040 Descending Albuquerque Center
04:19PM 33.1578 -113.0583 58° Northeast 376 433 19,600 -2,040 Descending Albuquerque Center
04:20PM 33.2106 -112.9547 59° Northeast 370 426 17,600 -1,740 Descending Albuquerque Center
04:21PM 33.2619 -112.8564 58° Northeast 360 414 16,100 -840 Descending Albuquerque Center
04:22PM 33.2817 -112.7592 76° East 330 380 15,900 -600 Descending Albuquerque Center
04:23PM 33.2842 -112.6336 89° East 319 367 14,900 -1,200 Descending Albuquerque Center
04:24PM 33.2872 -112.5328 88° East 304 350 13,500 -1,380 Descending Albuquerque Center
04:25PM 33.2894 -112.4375 88° East 292 336 12,100 -1,320 Descending Albuquerque Center
04:26PM 33.2928 -112.3403 88° East 294 338 10,900 -1,020 Descending Albuquerque Center
04:27PM 33.2994 -112.2464 85° East 286 329 10,100 -840 Descending Albuquerque Center
04:28PM 33.3061 -112.1564 85° East 276 318 9,300 -780 Descending Albuquerque Center
04:29PM 33.3167 -112.0744 81° East 251 289 8,600 -1,020 Descending Albuquerque Center
04:30PM 33.3392 -111.9828 74° East 244 281 7,300 -840 Descending Albuquerque Center
04:31PM 33.3456 -111.9019 85° East 244 281 7,000 -720 Descending Albuquerque Center
04:32PM 33.3458 -111.8233 90° East 239 275 5,900 -1,140 Descending Albuquerque Center
04:33PM 33.3983 -111.8244 359° North 215 247 4,700 -1,260 Descending Albuquerque Center
04:34PM 33.4283 -111.8761 305° West 186 214 3,400 -1,200 Descending Albuquerque Center
04:35PM 33.4283 -111.9325 270° West 169 194 2,300 -960 Descending Albuquerque Center
04:36PM 33.4289 -111.9781 271° West 142 163 1,500 -600 Descending Albuquerque Center
04:37PM 33.4275 -112.0275 268° West 137 158 1,100 -420 Descending Albuquerque Center